sensor_id;sensor_type;location;lat;lon;timestamp;P1;durP1;ratioP1;P2;durP2;ratioP2
69256;SDS011;56376;53.356;-1.748;2022-09-03T00:01:21;3.90;;;3.10;;
69256;SDS011;56376;53.356;-1.748;2022-09-03T00:04:01;5.07;;;3.30;;
69256;SDS011;56376;53.356;-1.748;2022-09-03T00:09:06;3.63;;;3.33;;
69256;SDS011;56376;53.356;-1.748;2022-09-03T00:11:46;3.80;;;3.30;;
69256;SDS011;56376;53.356;-1.748;2022-09-03T00:14:23;3.85;;;3.45;;
69256;SDS011;56376;53.356;-1.748;2022-09-03T00:17:35;3.97;;;3.60;;
69256;SDS011;56376;53.356;-1.748;2022-09-03T00:22:31;5.18;;;3.85;;
69256;SDS011;56376;53.356;-1.748;2022-09-03T00:25:01;3.85;;;3.45;;
69256;SDS011;56376;53.356;-1.748;2022-09-03T00:27:28;3.83;;;3.50;;
69256;SDS011;56376;53.356;-1.748;2022-09-03T00:30:03;3.83;;;3.42;;
69256;SDS011;56376;53.356;-1.748;2022-09-03T00:32:43;3.83;;;3.53;;
69256;SDS011;56376;53.356;-1.748;2022-09-03T00:35:21;4.72;;;3.53;;
69256;SDS011;56376;53.356;-1.748;2022-09-03T00:37:50;3.97;;;3.63;;
69256;SDS011;56376;53.356;-1.748;2022-09-03T00:41:01;3.58;;;3.28;;
69256;SDS011;56376;53.356;-1.748;2022-09-03T00:46:05;3.95;;;3.65;;
69256;SDS011;56376;53.356;-1.748;2022-09-03T00:51:56;5.15;;;3.92;;
69256;SDS011;56376;53.356;-1.748;2022-09-03T00:57:30;5.25;;;4.75;;
69256;SDS011;56376;53.356;-1.748;2022-09-03T01:00:18;4.70;;;4.30;;
69256;SDS011;56376;53.356;-1.748;2022-09-03T01:05:37;6.07;;;4.25;;
69256;SDS011;56376;53.356;-1.748;2022-09-03T01:10:54;4.53;;;3.63;;
69256;SDS011;56376;53.356;-1.748;2022-09-03T01:18:52;4.13;;;3.70;;
69256;SDS011;56376;53.356;-1.748;2022-09-03T01:21:27;4.57;;;4.15;;
69256;SDS011;56376;53.356;-1.748;2022-09-03T01:26:50;5.53;;;5.03;;
69256;SDS011;56376;53.356;-1.748;2022-09-03T01:30:17;4.43;;;4.03;;
69256;SDS011;56376;53.356;-1.748;2022-09-03T01:35:12;5.18;;;4.30;;
69256;SDS011;56376;53.356;-1.748;2022-09-03T01:45:53;5.75;;;4.55;;
69256;SDS011;56376;53.356;-1.748;2022-09-03T01:48:36;5.25;;;4.75;;
69256;SDS011;56376;53.356;-1.748;2022-09-03T01:51:10;5.43;;;4.93;;
69256;SDS011;56376;53.356;-1.748;2022-09-03T01:59:33;6.18;;;5.60;;
69256;SDS011;56376;53.356;-1.748;2022-09-03T02:02:02;5.53;;;5.03;;
69256;SDS011;56376;53.356;-1.748;2022-09-03T02:04:31;5.43;;;4.93;;
69256;SDS011;56376;53.356;-1.748;2022-09-03T02:06:58;4.90;;;4.50;;
69256;SDS011;56376;53.356;-1.748;2022-09-03T02:09:25;5.18;;;4.68;;
69256;SDS011;56376;53.356;-1.748;2022-09-03T02:12:13;4.90;;;4.30;;
69256;SDS011;56376;53.356;-1.748;2022-09-03T02:14:42;4.93;;;4.50;;
69256;SDS011;56376;53.356;-1.748;2022-09-03T02:17:08;4.72;;;4.32;;
69256;SDS011;56376;53.356;-1.748;2022-09-03T02:19:35;5.88;;;5.38;;
69256;SDS011;56376;53.356;-1.748;2022-09-03T02:22:02;5.68;;;5.18;;
69256;SDS011;56376;53.356;-1.748;2022-09-03T02:24:29;5.68;;;5.22;;
69256;SDS011;56376;53.356;-1.748;2022-09-03T02:26:54;6.53;;;5.82;;
69256;SDS011;56376;53.356;-1.748;2022-09-03T02:29:20;5.57;;;5.07;;
69256;SDS011;56376;53.356;-1.748;2022-09-03T02:31:46;5.28;;;4.78;;
69256;SDS011;56376;53.356;-1.748;2022-09-03T02:34:12;5.70;;;5.20;;
69256;SDS011;56376;53.356;-1.748;2022-09-03T02:36:44;5.63;;;4.97;;
69256;SDS011;56376;53.356;-1.748;2022-09-03T02:41:37;5.97;;;5.47;;
69256;SDS011;56376;53.356;-1.748;2022-09-03T02:46:31;5.85;;;5.32;;
69256;SDS011;56376;53.356;-1.748;2022-09-03T02:49:00;6.60;;;5.93;;
69256;SDS011;56376;53.356;-1.748;2022-09-03T02:51:25;6.60;;;5.60;;
69256;SDS011;56376;53.356;-1.748;2022-09-03T02:53:51;5.60;;;5.10;;
69256;SDS011;56376;53.356;-1.748;2022-09-03T02:56:16;5.82;;;5.32;;
69256;SDS011;56376;53.356;-1.748;2022-09-03T02:58:42;10.60;;;8.18;;
69256;SDS011;56376;53.356;-1.748;2022-09-03T03:01:07;7.90;;;7.20;;
69256;SDS011;56376;53.356;-1.748;2022-09-03T03:03:33;8.88;;;8.07;;
69256;SDS011;56376;53.356;-1.748;2022-09-03T03:05:59;8.23;;;7.45;;
69256;SDS011;56376;53.356;-1.748;2022-09-03T03:08:27;7.72;;;7.03;;
69256;SDS011;56376;53.356;-1.748;2022-09-03T03:10:55;8.65;;;7.75;;
69256;SDS011;56376;53.356;-1.748;2022-09-03T03:13:22;7.53;;;6.88;;
69256;SDS011;56376;53.356;-1.748;2022-09-03T03:15:48;7.40;;;6.78;;
69256;SDS011;56376;53.356;-1.748;2022-09-03T03:18:14;7.70;;;7.10;;
69256;SDS011;56376;53.356;-1.748;2022-09-03T03:20:40;7.03;;;6.43;;
69256;SDS011;56376;53.356;-1.748;2022-09-03T03:23:06;7.93;;;7.22;;
69256;SDS011;56376;53.356;-1.748;2022-09-03T03:25:33;9.35;;;8.50;;
69256;SDS011;56376;53.356;-1.748;2022-09-03T03:27:59;8.73;;;7.93;;
69256;SDS011;56376;53.356;-1.748;2022-09-03T03:30:25;9.32;;;8.50;;
69256;SDS011;56376;53.356;-1.748;2022-09-03T03:32:52;9.15;;;8.40;;
69256;SDS011;56376;53.356;-1.748;2022-09-03T03:35:18;10.48;;;9.15;;
69256;SDS011;56376;53.356;-1.748;2022-09-03T03:37:44;8.80;;;7.93;;
69256;SDS011;56376;53.356;-1.748;2022-09-03T03:40:09;9.30;;;8.50;;
69256;SDS011;56376;53.356;-1.748;2022-09-03T03:42:35;8.80;;;8.02;;
69256;SDS011;56376;53.356;-1.748;2022-09-03T03:45:01;10.02;;;9.02;;
69256;SDS011;56376;53.356;-1.748;2022-09-03T03:47:29;9.18;;;8.38;;
69256;SDS011;56376;53.356;-1.748;2022-09-03T03:49:55;8.43;;;7.63;;
69256;SDS011;56376;53.356;-1.748;2022-09-03T03:52:22;8.35;;;7.57;;
69256;SDS011;56376;53.356;-1.748;2022-09-03T03:54:47;12.02;;;11.02;;
69256;SDS011;56376;53.356;-1.748;2022-09-03T03:57:14;10.88;;;9.88;;
69256;SDS011;56376;53.356;-1.748;2022-09-03T03:59:39;10.20;;;9.20;;
69256;SDS011;56376;53.356;-1.748;2022-09-03T04:02:05;9.73;;;8.82;;
69256;SDS011;56376;53.356;-1.748;2022-09-03T04:04:30;8.68;;;7.93;;
69256;SDS011;56376;53.356;-1.748;2022-09-03T04:06:55;7.85;;;7.25;;
69256;SDS011;56376;53.356;-1.748;2022-09-03T04:09:21;8.32;;;7.53;;
69256;SDS011;56376;53.356;-1.748;2022-09-03T04:11:46;9.20;;;8.35;;
69256;SDS011;56376;53.356;-1.748;2022-09-03T04:14:12;8.65;;;7.95;;
69256;SDS011;56376;53.356;-1.748;2022-09-03T04:16:37;8.80;;;7.95;;
69256;SDS011;56376;53.356;-1.748;2022-09-03T04:19:03;9.32;;;8.52;;
69256;SDS011;56376;53.356;-1.748;2022-09-03T04:21:29;9.50;;;8.60;;
69256;SDS011;56376;53.356;-1.748;2022-09-03T04:23:55;8.82;;;8.02;;
69256;SDS011;56376;53.356;-1.748;2022-09-03T04:26:23;9.05;;;8.25;;
69256;SDS011;56376;53.356;-1.748;2022-09-03T04:28:56;8.52;;;7.82;;
69256;SDS011;56376;53.356;-1.748;2022-09-03T04:31:23;9.50;;;8.50;;
69256;SDS011;56376;53.356;-1.748;2022-09-03T04:33:49;9.77;;;8.88;;
69256;SDS011;56376;53.356;-1.748;2022-09-03T04:36:18;8.40;;;7.70;;
69256;SDS011;56376;53.356;-1.748;2022-09-03T04:38:46;8.40;;;7.60;;
69256;SDS011;56376;53.356;-1.748;2022-09-03T04:41:14;9.02;;;8.15;;
69256;SDS011;56376;53.356;-1.748;2022-09-03T04:43:42;7.88;;;7.18;;
69256;SDS011;56376;53.356;-1.748;2022-09-03T04:46:07;7.93;;;7.18;;
69256;SDS011;56376;53.356;-1.748;2022-09-03T04:48:34;9.45;;;8.55;;
69256;SDS011;56376;53.356;-1.748;2022-09-03T04:51:05;11.02;;;9.93;;
69256;SDS011;56376;53.356;-1.748;2022-09-03T04:53:39;12.60;;;10.43;;
69256;SDS011;56376;53.356;-1.748;2022-09-03T04:56:19;10.13;;;9.15;;
69256;SDS011;56376;53.356;-1.748;2022-09-03T04:58:46;9.90;;;8.88;;
69256;SDS011;56376;53.356;-1.748;2022-09-03T05:01:15;10.23;;;9.32;;
69256;SDS011;56376;53.356;-1.748;2022-09-03T05:03:42;9.77;;;8.88;;
69256;SDS011;56376;53.356;-1.748;2022-09-03T05:06:08;11.68;;;10.63;;
69256;SDS011;56376;53.356;-1.748;2022-09-03T05:08:34;10.68;;;9.63;;
69256;SDS011;56376;53.356;-1.748;2022-09-03T05:11:04;10.20;;;9.30;;
69256;SDS011;56376;53.356;-1.748;2022-09-03T05:13:31;10.27;;;9.32;;
69256;SDS011;56376;53.356;-1.748;2022-09-03T05:15:58;10.75;;;9.75;;
69256;SDS011;56376;53.356;-1.748;2022-09-03T05:18:34;11.55;;;10.52;;
69256;SDS011;56376;53.356;-1.748;2022-09-03T05:21:01;10.63;;;9.63;;
69256;SDS011;56376;53.356;-1.748;2022-09-03T05:23:28;10.70;;;9.68;;
69256;SDS011;56376;53.356;-1.748;2022-09-03T05:25:59;10.32;;;9.38;;
69256;SDS011;56376;53.356;-1.748;2022-09-03T05:30:58;11.00;;;9.90;;
69256;SDS011;56376;53.356;-1.748;2022-09-03T05:33:27;11.48;;;10.43;;
69256;SDS011;56376;53.356;-1.748;2022-09-03T05:36:00;12.23;;;11.13;;
69256;SDS011;56376;53.356;-1.748;2022-09-03T05:38:26;11.63;;;10.57;;
69256;SDS011;56376;53.356;-1.748;2022-09-03T05:40:52;11.07;;;10.02;;
69256;SDS011;56376;53.356;-1.748;2022-09-03T05:43:17;12.50;;;11.40;;
69256;SDS011;56376;53.356;-1.748;2022-09-03T05:45:43;11.65;;;10.60;;
69256;SDS011;56376;53.356;-1.748;2022-09-03T05:48:08;11.32;;;10.40;;
69256;SDS011;56376;53.356;-1.748;2022-09-03T05:50:33;12.15;;;10.95;;
69256;SDS011;56376;53.356;-1.748;2022-09-03T05:52:59;11.07;;;10.07;;
69256;SDS011;56376;53.356;-1.748;2022-09-03T05:55:24;12.38;;;11.25;;
69256;SDS011;56376;53.356;-1.748;2022-09-03T05:57:53;13.10;;;11.80;;
69256;SDS011;56376;53.356;-1.748;2022-09-03T06:00:18;11.48;;;10.40;;
69256;SDS011;56376;53.356;-1.748;2022-09-03T06:02:51;11.95;;;10.85;;
69256;SDS011;56376;53.356;-1.748;2022-09-03T06:05:17;11.32;;;10.25;;
69256;SDS011;56376;53.356;-1.748;2022-09-03T06:07:43;10.80;;;9.77;;
69256;SDS011;56376;53.356;-1.748;2022-09-03T06:10:11;12.35;;;11.15;;
69256;SDS011;56376;53.356;-1.748;2022-09-03T06:12:37;12.13;;;10.93;;
69256;SDS011;56376;53.356;-1.748;2022-09-03T06:15:02;11.80;;;10.60;;
69256;SDS011;56376;53.356;-1.748;2022-09-03T06:17:29;13.15;;;11.85;;
69256;SDS011;56376;53.356;-1.748;2022-09-03T06:19:55;12.18;;;11.02;;
69256;SDS011;56376;53.356;-1.748;2022-09-03T06:22:21;12.48;;;11.18;;
69256;SDS011;56376;53.356;-1.748;2022-09-03T06:24:48;16.20;;;14.60;;
69256;SDS011;56376;53.356;-1.748;2022-09-03T06:27:14;20.23;;;18.05;;
69256;SDS011;56376;53.356;-1.748;2022-09-03T06:29:39;18.48;;;16.60;;
69256;SDS011;56376;53.356;-1.748;2022-09-03T06:32:05;17.17;;;15.27;;
69256;SDS011;56376;53.356;-1.748;2022-09-03T06:34:30;18.10;;;16.15;;
69256;SDS011;56376;53.356;-1.748;2022-09-03T06:36:56;15.82;;;14.13;;
69256;SDS011;56376;53.356;-1.748;2022-09-03T06:39:22;17.42;;;15.60;;
69256;SDS011;56376;53.356;-1.748;2022-09-03T06:41:48;17.60;;;15.70;;
69256;SDS011;56376;53.356;-1.748;2022-09-03T06:44:15;19.25;;;17.23;;
69256;SDS011;56376;53.356;-1.748;2022-09-03T06:46:41;19.10;;;17.05;;
69256;SDS011;56376;53.356;-1.748;2022-09-03T06:49:07;19.83;;;17.83;;
69256;SDS011;56376;53.356;-1.748;2022-09-03T06:51:33;18.67;;;16.77;;
69256;SDS011;56376;53.356;-1.748;2022-09-03T06:54:09;17.83;;;16.05;;
69256;SDS011;56376;53.356;-1.748;2022-09-03T06:56:36;17.83;;;16.02;;
69256;SDS011;56376;53.356;-1.748;2022-09-03T06:59:05;20.15;;;18.08;;
69256;SDS011;56376;53.356;-1.748;2022-09-03T07:01:32;19.02;;;17.02;;
69256;SDS011;56376;53.356;-1.748;2022-09-03T07:03:59;18.23;;;16.35;;
69256;SDS011;56376;53.356;-1.748;2022-09-03T07:06:28;20.15;;;18.10;;
69256;SDS011;56376;53.356;-1.748;2022-09-03T07:08:55;21.65;;;18.63;;
69256;SDS011;56376;53.356;-1.748;2022-09-03T07:11:22;20.95;;;18.70;;
69256;SDS011;56376;53.356;-1.748;2022-09-03T07:13:49;21.77;;;19.58;;
69256;SDS011;56376;53.356;-1.748;2022-09-03T07:16:16;20.70;;;18.60;;
69256;SDS011;56376;53.356;-1.748;2022-09-03T07:18:44;21.13;;;18.92;;
69256;SDS011;56376;53.356;-1.748;2022-09-03T07:21:13;20.80;;;18.60;;
69256;SDS011;56376;53.356;-1.748;2022-09-03T07:23:40;20.92;;;18.80;;
69256;SDS011;56376;53.356;-1.748;2022-09-03T07:26:07;25.67;;;22.80;;
69256;SDS011;56376;53.356;-1.748;2022-09-03T07:28:39;24.45;;;21.80;;
69256;SDS011;56376;53.356;-1.748;2022-09-03T07:31:10;22.35;;;20.15;;
69256;SDS011;56376;53.356;-1.748;2022-09-03T07:33:38;25.20;;;22.60;;
69256;SDS011;56376;53.356;-1.748;2022-09-03T07:36:08;23.67;;;21.27;;
69256;SDS011;56376;53.356;-1.748;2022-09-03T07:38:35;22.63;;;20.30;;
69256;SDS011;56376;53.356;-1.748;2022-09-03T07:41:02;21.63;;;19.33;;
69256;SDS011;56376;53.356;-1.748;2022-09-03T07:43:37;22.33;;;20.13;;
69256;SDS011;56376;53.356;-1.748;2022-09-03T07:46:04;20.67;;;18.58;;
69256;SDS011;56376;53.356;-1.748;2022-09-03T07:48:31;23.05;;;20.67;;
69256;SDS011;56376;53.356;-1.748;2022-09-03T07:50:57;23.25;;;20.88;;
69256;SDS011;56376;53.356;-1.748;2022-09-03T07:53:25;24.33;;;21.75;;
69256;SDS011;56376;53.356;-1.748;2022-09-03T07:55:50;22.27;;;19.98;;
69256;SDS011;56376;53.356;-1.748;2022-09-03T07:58:16;22.13;;;19.92;;
69256;SDS011;56376;53.356;-1.748;2022-09-03T08:00:42;22.48;;;20.17;;
69256;SDS011;56376;53.356;-1.748;2022-09-03T08:03:07;26.48;;;23.55;;
69256;SDS011;56376;53.356;-1.748;2022-09-03T08:05:35;25.80;;;23.10;;
69256;SDS011;56376;53.356;-1.748;2022-09-03T08:08:02;28.83;;;25.83;;
69256;SDS011;56376;53.356;-1.748;2022-09-03T08:10:29;32.72;;;29.05;;
69256;SDS011;56376;53.356;-1.748;2022-09-03T08:12:55;28.27;;;25.30;;
69256;SDS011;56376;53.356;-1.748;2022-09-03T08:15:22;31.20;;;27.90;;
69256;SDS011;56376;53.356;-1.748;2022-09-03T08:17:47;24.85;;;22.35;;
69256;SDS011;56376;53.356;-1.748;2022-09-03T08:20:13;24.85;;;22.35;;
69256;SDS011;56376;53.356;-1.748;2022-09-03T08:22:39;21.75;;;19.65;;
69256;SDS011;56376;53.356;-1.748;2022-09-03T08:25:05;22.35;;;20.15;;
69256;SDS011;56376;53.356;-1.748;2022-09-03T08:27:31;23.40;;;20.70;;
69256;SDS011;56376;53.356;-1.748;2022-09-03T08:29:56;20.85;;;18.73;;
69256;SDS011;56376;53.356;-1.748;2022-09-03T08:32:22;26.13;;;23.52;;
69256;SDS011;56376;53.356;-1.748;2022-09-03T08:34:47;28.13;;;25.25;;
69256;SDS011;56376;53.356;-1.748;2022-09-03T08:37:14;30.10;;;27.00;;
69256;SDS011;56376;53.356;-1.748;2022-09-03T08:39:40;28.15;;;25.45;;
69256;SDS011;56376;53.356;-1.748;2022-09-03T08:45:10;24.38;;;21.77;;
69256;SDS011;56376;53.356;-1.748;2022-09-03T08:50:25;20.60;;;18.50;;
69256;SDS011;56376;53.356;-1.748;2022-09-03T08:55:35;21.83;;;19.52;;
69256;SDS011;56376;53.356;-1.748;2022-09-03T09:00:45;19.75;;;17.77;;
69256;SDS011;56376;53.356;-1.748;2022-09-03T09:03:30;20.58;;;18.52;;
69256;SDS011;56376;53.356;-1.748;2022-09-03T09:08:54;22.00;;;19.90;;
69256;SDS011;56376;53.356;-1.748;2022-09-03T09:14:03;21.25;;;19.25;;
69256;SDS011;56376;53.356;-1.748;2022-09-03T09:16:37;18.48;;;16.67;;
69256;SDS011;56376;53.356;-1.748;2022-09-03T09:21:58;17.48;;;15.77;;
69256;SDS011;56376;53.356;-1.748;2022-09-03T09:24:28;17.55;;;15.75;;
69256;SDS011;56376;53.356;-1.748;2022-09-03T09:27:03;19.05;;;17.13;;
69256;SDS011;56376;53.356;-1.748;2022-09-03T09:29:36;21.30;;;19.10;;
69256;SDS011;56376;53.356;-1.748;2022-09-03T09:32:03;18.65;;;16.90;;
69256;SDS011;56376;53.356;-1.748;2022-09-03T09:34:33;21.40;;;19.50;;
69256;SDS011;56376;53.356;-1.748;2022-09-03T09:37:00;18.73;;;16.80;;
69256;SDS011;56376;53.356;-1.748;2022-09-03T09:39:30;22.15;;;20.08;;
69256;SDS011;56376;53.356;-1.748;2022-09-03T09:41:56;20.65;;;18.52;;
69256;SDS011;56376;53.356;-1.748;2022-09-03T09:44:24;18.08;;;16.27;;
69256;SDS011;56376;53.356;-1.748;2022-09-03T09:46:50;16.35;;;14.80;;
69256;SDS011;56376;53.356;-1.748;2022-09-03T09:49:24;20.08;;;18.08;;
69256;SDS011;56376;53.356;-1.748;2022-09-03T09:52:12;18.02;;;16.25;;
69256;SDS011;56376;53.356;-1.748;2022-09-03T09:54:40;15.10;;;13.63;;
69256;SDS011;56376;53.356;-1.748;2022-09-03T09:57:12;15.52;;;14.05;;
69256;SDS011;56376;53.356;-1.748;2022-09-03T09:59:42;14.43;;;13.02;;
69256;SDS011;56376;53.356;-1.748;2022-09-03T10:02:14;18.25;;;16.48;;
69256;SDS011;56376;53.356;-1.748;2022-09-03T10:04:40;17.75;;;16.02;;
69256;SDS011;56376;53.356;-1.748;2022-09-03T10:07:20;18.58;;;16.65;;
69256;SDS011;56376;53.356;-1.748;2022-09-03T10:09:56;20.42;;;18.35;;
69256;SDS011;56376;53.356;-1.748;2022-09-03T10:12:31;20.23;;;18.23;;
69256;SDS011;56376;53.356;-1.748;2022-09-03T10:15:02;19.50;;;17.40;;
69256;SDS011;56376;53.356;-1.748;2022-09-03T10:17:41;20.20;;;18.17;;
69256;SDS011;56376;53.356;-1.748;2022-09-03T10:20:18;22.15;;;19.33;;
69256;SDS011;56376;53.356;-1.748;2022-09-03T10:23:12;18.10;;;16.40;;
69256;SDS011;56376;53.356;-1.748;2022-09-03T10:28:17;19.02;;;17.13;;
69256;SDS011;56376;53.356;-1.748;2022-09-03T10:30:54;19.83;;;18.00;;
69256;SDS011;56376;53.356;-1.748;2022-09-03T10:33:38;19.80;;;17.80;;
69256;SDS011;56376;53.356;-1.748;2022-09-03T10:39:03;23.90;;;21.50;;
69256;SDS011;56376;53.356;-1.748;2022-09-03T10:44:17;17.70;;;16.02;;
69256;SDS011;56376;53.356;-1.748;2022-09-03T10:49:49;24.92;;;22.45;;
69256;SDS011;56376;53.356;-1.748;2022-09-03T10:52:54;22.50;;;20.33;;
69256;SDS011;56376;53.356;-1.748;2022-09-03T11:04:24;26.15;;;23.33;;
69256;SDS011;56376;53.356;-1.748;2022-09-03T11:07:02;19.02;;;17.20;;
69256;SDS011;56376;53.356;-1.748;2022-09-03T11:15:05;18.95;;;16.95;;
69256;SDS011;56376;53.356;-1.748;2022-09-03T11:17:40;18.63;;;16.80;;
69256;SDS011;56376;53.356;-1.748;2022-09-03T11:20:16;18.33;;;16.50;;
69256;SDS011;56376;53.356;-1.748;2022-09-03T11:22:45;19.52;;;17.48;;
69256;SDS011;56376;53.356;-1.748;2022-09-03T11:25:13;17.63;;;15.63;;
69256;SDS011;56376;53.356;-1.748;2022-09-03T11:30:07;14.27;;;12.80;;
69256;SDS011;56376;53.356;-1.748;2022-09-03T11:32:48;14.07;;;12.77;;
69256;SDS011;56376;53.356;-1.748;2022-09-03T11:40:33;11.23;;;10.07;;
69256;SDS011;56376;53.356;-1.748;2022-09-03T11:43:10;9.30;;;8.40;;
69256;SDS011;56376;53.356;-1.748;2022-09-03T11:48:42;8.65;;;7.78;;
69256;SDS011;56376;53.356;-1.748;2022-09-03T11:56:37;6.93;;;6.32;;
69256;SDS011;56376;53.356;-1.748;2022-09-03T12:01:38;7.20;;;6.50;;
69256;SDS011;56376;53.356;-1.748;2022-09-03T12:04:11;6.60;;;5.90;;
69256;SDS011;56376;53.356;-1.748;2022-09-03T12:12:26;6.10;;;5.50;;
69256;SDS011;56376;53.356;-1.748;2022-09-03T12:15:04;7.63;;;6.85;;
69256;SDS011;56376;53.356;-1.748;2022-09-03T12:17:51;7.25;;;6.60;;
69256;SDS011;56376;53.356;-1.748;2022-09-03T12:20:59;8.27;;;7.05;;
69256;SDS011;56376;53.356;-1.748;2022-09-03T12:23:32;7.70;;;6.97;;
69256;SDS011;56376;53.356;-1.748;2022-09-03T12:26:03;7.88;;;7.00;;
69256;SDS011;56376;53.356;-1.748;2022-09-03T12:28:33;6.50;;;5.95;;
69256;SDS011;56376;53.356;-1.748;2022-09-03T12:31:05;7.53;;;6.78;;
69256;SDS011;56376;53.356;-1.748;2022-09-03T12:33:49;9.77;;;6.80;;
69256;SDS011;56376;53.356;-1.748;2022-09-03T12:36:34;7.35;;;6.57;;
69256;SDS011;56376;53.356;-1.748;2022-09-03T12:39:17;7.53;;;6.82;;
69256;SDS011;56376;53.356;-1.748;2022-09-03T12:44:25;7.72;;;6.97;;
69256;SDS011;56376;53.356;-1.748;2022-09-03T12:47:00;7.97;;;7.15;;
69256;SDS011;56376;53.356;-1.748;2022-09-03T12:49:38;7.72;;;6.95;;
69256;SDS011;56376;53.356;-1.748;2022-09-03T12:52:07;8.07;;;7.07;;
69256;SDS011;56376;53.356;-1.748;2022-09-03T12:54:36;8.93;;;8.13;;
69256;SDS011;56376;53.356;-1.748;2022-09-03T12:57:08;9.10;;;8.20;;
69256;SDS011;56376;53.356;-1.748;2022-09-03T12:59:33;7.85;;;7.15;;
69256;SDS011;56376;53.356;-1.748;2022-09-03T13:02:11;7.38;;;6.78;;
69256;SDS011;56376;53.356;-1.748;2022-09-03T13:04:42;8.82;;;7.05;;
69256;SDS011;56376;53.356;-1.748;2022-09-03T13:07:28;6.85;;;6.05;;
69256;SDS011;56376;53.356;-1.748;2022-09-03T13:10:04;7.03;;;6.32;;
69256;SDS011;56376;53.356;-1.748;2022-09-03T13:12:43;6.57;;;5.97;;
69256;SDS011;56376;53.356;-1.748;2022-09-03T13:15:18;6.80;;;6.10;;
69256;SDS011;56376;53.356;-1.748;2022-09-03T13:20:28;5.93;;;5.43;;
69256;SDS011;56376;53.356;-1.748;2022-09-03T13:26:08;5.72;;;5.22;;
69256;SDS011;56376;53.356;-1.748;2022-09-03T13:28:57;6.13;;;5.53;;
69256;SDS011;56376;53.356;-1.748;2022-09-03T13:31:42;5.85;;;5.15;;
69256;SDS011;56376;53.356;-1.748;2022-09-03T13:37:05;5.50;;;5.00;;
69256;SDS011;56376;53.356;-1.748;2022-09-03T13:40:01;6.60;;;5.50;;
69256;SDS011;56376;53.356;-1.748;2022-09-03T13:42:41;5.30;;;4.80;;
69256;SDS011;56376;53.356;-1.748;2022-09-03T13:48:11;4.70;;;4.30;;
69256;SDS011;56376;53.356;-1.748;2022-09-03T13:51:21;4.60;;;4.20;;
69256;SDS011;56376;53.356;-1.748;2022-09-03T13:54:01;4.82;;;4.18;;
69256;SDS011;56376;53.356;-1.748;2022-09-03T13:59:28;3.80;;;3.50;;
69256;SDS011;56376;53.356;-1.748;2022-09-03T14:05:02;3.72;;;3.42;;
69256;SDS011;56376;53.356;-1.748;2022-09-03T14:13:23;2.85;;;2.65;;
69256;SDS011;56376;53.356;-1.748;2022-09-03T14:16:09;3.72;;;3.42;;
69256;SDS011;56376;53.356;-1.748;2022-09-03T14:19:39;3.35;;;3.05;;
69256;SDS011;56376;53.356;-1.748;2022-09-03T14:24:54;3.50;;;3.20;;
69256;SDS011;56376;53.356;-1.748;2022-09-03T14:27:26;3.60;;;3.30;;
69256;SDS011;56376;53.356;-1.748;2022-09-03T14:30:04;2.97;;;2.78;;
69256;SDS011;56376;53.356;-1.748;2022-09-03T14:43:13;4.72;;;3.42;;
69256;SDS011;56376;53.356;-1.748;2022-09-03T14:46:10;3.50;;;3.20;;
69256;SDS011;56376;53.356;-1.748;2022-09-03T14:57:28;3.17;;;2.88;;
69256;SDS011;56376;53.356;-1.748;2022-09-03T15:00:05;3.10;;;2.88;;
69256;SDS011;56376;53.356;-1.748;2022-09-03T15:07:55;4.00;;;3.60;;
69256;SDS011;56376;53.356;-1.748;2022-09-03T15:13:34;5.32;;;3.60;;
69256;SDS011;56376;53.356;-1.748;2022-09-03T15:18:51;3.45;;;3.15;;
69256;SDS011;56376;53.356;-1.748;2022-09-03T15:24:30;4.05;;;3.70;;
69256;SDS011;56376;53.356;-1.748;2022-09-03T15:30:06;3.95;;;3.65;;
69256;SDS011;56376;53.356;-1.748;2022-09-03T15:32:55;3.58;;;3.28;;
69256;SDS011;56376;53.356;-1.748;2022-09-03T15:35:50;4.60;;;3.80;;
69256;SDS011;56376;53.356;-1.748;2022-09-03T15:43:59;4.00;;;3.65;;
69256;SDS011;56376;53.356;-1.748;2022-09-03T15:46:34;3.70;;;3.40;;
69256;SDS011;56376;53.356;-1.748;2022-09-03T15:49:07;4.30;;;3.90;;
69256;SDS011;56376;53.356;-1.748;2022-09-03T15:54:29;3.60;;;3.28;;
69256;SDS011;56376;53.356;-1.748;2022-09-03T15:57:11;4.25;;;3.85;;
69256;SDS011;56376;53.356;-1.748;2022-09-03T16:00:09;3.88;;;3.58;;
69256;SDS011;56376;53.356;-1.748;2022-09-03T16:05:16;3.53;;;3.22;;
69256;SDS011;56376;53.356;-1.748;2022-09-03T16:08:12;3.33;;;3.05;;
69256;SDS011;56376;53.356;-1.748;2022-09-03T16:10:53;3.45;;;3.15;;
69256;SDS011;56376;53.356;-1.748;2022-09-03T16:19:17;3.72;;;3.25;;
69256;SDS011;56376;53.356;-1.748;2022-09-03T16:21:58;3.97;;;3.58;;
69256;SDS011;56376;53.356;-1.748;2022-09-03T16:24:40;3.63;;;3.33;;
69256;SDS011;56376;53.356;-1.748;2022-09-03T16:27:22;3.65;;;3.35;;
69256;SDS011;56376;53.356;-1.748;2022-09-03T16:35:48;3.92;;;3.63;;
69256;SDS011;56376;53.356;-1.748;2022-09-03T16:46:45;3.50;;;3.20;;
69256;SDS011;56376;53.356;-1.748;2022-09-03T16:52:28;4.32;;;3.97;;
69256;SDS011;56376;53.356;-1.748;2022-09-03T16:57:56;4.47;;;4.07;;
69256;SDS011;56376;53.356;-1.748;2022-09-03T17:08:49;3.75;;;3.45;;
69256;SDS011;56376;53.356;-1.748;2022-09-03T17:20:14;3.72;;;3.42;;
69256;SDS011;56376;53.356;-1.748;2022-09-03T17:25:37;3.65;;;3.35;;
69256;SDS011;56376;53.356;-1.748;2022-09-03T17:30:45;3.78;;;3.47;;
69256;SDS011;56376;53.356;-1.748;2022-09-03T17:36:09;3.83;;;3.33;;
69256;SDS011;56376;53.356;-1.748;2022-09-03T17:49:50;3.78;;;3.45;;
69256;SDS011;56376;53.356;-1.748;2022-09-03T17:57:38;3.90;;;3.60;;
69256;SDS011;56376;53.356;-1.748;2022-09-03T18:00:10;3.90;;;3.60;;
69256;SDS011;56376;53.356;-1.748;2022-09-03T18:05:41;3.38;;;3.10;;
69256;SDS011;56376;53.356;-1.748;2022-09-03T18:08:14;3.70;;;3.40;;
69256;SDS011;56376;53.356;-1.748;2022-09-03T18:11:00;3.70;;;3.40;;
69256;SDS011;56376;53.356;-1.748;2022-09-03T18:16:34;3.80;;;3.50;;
69256;SDS011;56376;53.356;-1.748;2022-09-03T18:19:11;3.67;;;3.38;;
69256;SDS011;56376;53.356;-1.748;2022-09-03T18:21:56;4.07;;;3.78;;
69256;SDS011;56376;53.356;-1.748;2022-09-03T18:24:48;4.05;;;3.67;;
69256;SDS011;56376;53.356;-1.748;2022-09-03T18:27:48;3.88;;;3.50;;
69256;SDS011;56376;53.356;-1.748;2022-09-03T18:30:36;4.03;;;3.72;;
69256;SDS011;56376;53.356;-1.748;2022-09-03T18:33:22;3.70;;;3.40;;
69256;SDS011;56376;53.356;-1.748;2022-09-03T18:36:07;4.03;;;3.72;;
69256;SDS011;56376;53.356;-1.748;2022-09-03T18:38:52;4.15;;;3.75;;
69256;SDS011;56376;53.356;-1.748;2022-09-03T18:45:26;3.65;;;3.35;;
69256;SDS011;56376;53.356;-1.748;2022-09-03T18:52:28;3.90;;;3.60;;
69256;SDS011;56376;53.356;-1.748;2022-09-03T19:01:25;3.53;;;3.22;;
69256;SDS011;56376;53.356;-1.748;2022-09-03T19:07:42;4.35;;;4.00;;
69256;SDS011;56376;53.356;-1.748;2022-09-03T19:10:50;4.05;;;3.63;;
69256;SDS011;56376;53.356;-1.748;2022-09-03T19:13:39;3.97;;;3.67;;
69256;SDS011;56376;53.356;-1.748;2022-09-03T19:19:49;4.43;;;4.00;;
69256;SDS011;56376;53.356;-1.748;2022-09-03T19:22:54;4.50;;;4.10;;
69256;SDS011;56376;53.356;-1.748;2022-09-03T19:25:38;4.43;;;3.83;;
69256;SDS011;56376;53.356;-1.748;2022-09-03T19:43:36;4.35;;;3.95;;
69256;SDS011;56376;53.356;-1.748;2022-09-03T19:46:32;4.47;;;4.10;;
69256;SDS011;56376;53.356;-1.748;2022-09-03T19:52:26;4.70;;;4.30;;
69256;SDS011;56376;53.356;-1.748;2022-09-03T19:55:13;4.60;;;4.20;;
69256;SDS011;56376;53.356;-1.748;2022-09-03T19:58:03;4.13;;;3.83;;
69256;SDS011;56376;53.356;-1.748;2022-09-03T20:00:46;4.65;;;4.28;;
69256;SDS011;56376;53.356;-1.748;2022-09-03T20:03:31;4.57;;;4.18;;
69256;SDS011;56376;53.356;-1.748;2022-09-03T20:06:17;4.65;;;4.25;;
69256;SDS011;56376;53.356;-1.748;2022-09-03T20:09:04;4.80;;;4.40;;